sensor_id;sensor_type;location;lat;lon;timestamp;P1;durP1;ratioP1;P2;durP2;ratioP2
48098;SDS011;33877;47.444;18.934;2022-09-09T00:02:21;4.82;;;1.62;;
48098;SDS011;33877;47.444;18.934;2022-09-09T00:05:00;5.75;;;1.50;;
48098;SDS011;33877;47.444;18.934;2022-09-09T00:07:43;4.18;;;1.58;;
48098;SDS011;33877;47.444;18.934;2022-09-09T00:10:38;2.35;;;1.20;;
48098;SDS011;33877;47.444;18.934;2022-09-09T00:21:33;3.03;;;1.35;;
48098;SDS011;33877;47.444;18.934;2022-09-09T00:24:10;5.95;;;1.45;;
48098;SDS011;33877;47.444;18.934;2022-09-09T00:27:04;3.22;;;1.67;;
48098;SDS011;33877;47.444;18.934;2022-09-09T00:29:41;2.28;;;1.37;;
48098;SDS011;33877;47.444;18.934;2022-09-09T00:32:18;4.25;;;1.58;;
48098;SDS011;33877;47.444;18.934;2022-09-09T00:35:01;3.03;;;1.55;;
48098;SDS011;33877;47.444;18.934;2022-09-09T00:37:40;2.85;;;1.33;;
48098;SDS011;33877;47.444;18.934;2022-09-09T00:40:45;2.13;;;1.40;;
48098;SDS011;33877;47.444;18.934;2022-09-09T00:51:15;3.50;;;1.25;;
48098;SDS011;33877;47.444;18.934;2022-09-09T00:54:24;4.00;;;1.70;;
48098;SDS011;33877;47.444;18.934;2022-09-09T00:57:13;2.67;;;1.30;;
48098;SDS011;33877;47.444;18.934;2022-09-09T00:59:48;2.60;;;1.60;;
48098;SDS011;33877;47.444;18.934;2022-09-09T01:02:27;4.07;;;1.20;;
48098;SDS011;33877;47.444;18.934;2022-09-09T01:05:05;3.60;;;1.40;;
48098;SDS011;33877;47.444;18.934;2022-09-09T01:07:40;2.85;;;1.15;;
48098;SDS011;33877;47.444;18.934;2022-09-09T01:10:23;2.62;;;1.45;;
48098;SDS011;33877;47.444;18.934;2022-09-09T01:13:25;4.18;;;1.40;;
48098;SDS011;33877;47.444;18.934;2022-09-09T01:16:03;2.33;;;1.40;;
48098;SDS011;33877;47.444;18.934;2022-09-09T01:18:37;2.92;;;1.40;;
48098;SDS011;33877;47.444;18.934;2022-09-09T01:21:18;2.60;;;1.30;;
48098;SDS011;33877;47.444;18.934;2022-09-09T01:26:54;2.35;;;1.23;;
48098;SDS011;33877;47.444;18.934;2022-09-09T01:29:26;2.40;;;1.50;;
48098;SDS011;33877;47.444;18.934;2022-09-09T01:31:59;5.35;;;3.28;;
48098;SDS011;33877;47.444;18.934;2022-09-09T01:34:33;2.62;;;1.50;;
48098;SDS011;33877;47.444;18.934;2022-09-09T01:37:07;3.15;;;1.42;;
48098;SDS011;33877;47.444;18.934;2022-09-09T01:39:40;3.17;;;1.48;;
48098;SDS011;33877;47.444;18.934;2022-09-09T01:42:13;3.97;;;1.42;;
48098;SDS011;33877;47.444;18.934;2022-09-09T01:44:45;2.75;;;1.40;;
48098;SDS011;33877;47.444;18.934;2022-09-09T01:49:49;4.05;;;1.87;;
48098;SDS011;33877;47.444;18.934;2022-09-09T01:52:21;2.33;;;1.33;;
48098;SDS011;33877;47.444;18.934;2022-09-09T01:54:54;3.10;;;1.60;;
48098;SDS011;33877;47.444;18.934;2022-09-09T01:57:27;3.03;;;1.60;;
48098;SDS011;33877;47.444;18.934;2022-09-09T02:00:11;2.95;;;1.50;;
48098;SDS011;33877;47.444;18.934;2022-09-09T02:08:41;2.60;;;1.50;;
48098;SDS011;33877;47.444;18.934;2022-09-09T02:11:17;3.10;;;1.50;;
48098;SDS011;33877;47.444;18.934;2022-09-09T02:13:54;2.90;;;1.58;;
48098;SDS011;33877;47.444;18.934;2022-09-09T02:19:24;3.42;;;1.65;;
48098;SDS011;33877;47.444;18.934;2022-09-09T02:21:59;3.15;;;1.62;;
48098;SDS011;33877;47.444;18.934;2022-09-09T02:24:32;1.80;;;1.10;;
48098;SDS011;33877;47.444;18.934;2022-09-09T02:27:06;2.92;;;1.35;;
48098;SDS011;33877;47.444;18.934;2022-09-09T02:29:37;3.42;;;1.45;;
48098;SDS011;33877;47.444;18.934;2022-09-09T02:32:14;1.85;;;1.10;;
48098;SDS011;33877;47.444;18.934;2022-09-09T02:34:45;1.95;;;1.17;;
48098;SDS011;33877;47.444;18.934;2022-09-09T02:37:17;2.78;;;1.30;;
48098;SDS011;33877;47.444;18.934;2022-09-09T02:39:50;2.83;;;1.58;;
48098;SDS011;33877;47.444;18.934;2022-09-09T02:42:20;3.78;;;1.70;;
48098;SDS011;33877;47.444;18.934;2022-09-09T02:44:50;3.50;;;1.50;;
48098;SDS011;33877;47.444;18.934;2022-09-09T02:55:55;2.72;;;1.65;;
48098;SDS011;33877;47.444;18.934;2022-09-09T02:58:29;2.28;;;1.40;;
48098;SDS011;33877;47.444;18.934;2022-09-09T03:00:58;2.85;;;1.65;;
48098;SDS011;33877;47.444;18.934;2022-09-09T03:03:30;4.72;;;1.70;;
48098;SDS011;33877;47.444;18.934;2022-09-09T03:06:02;3.72;;;1.52;;
48098;SDS011;33877;47.444;18.934;2022-09-09T03:08:32;4.07;;;1.67;;
48098;SDS011;33877;47.444;18.934;2022-09-09T03:11:00;4.93;;;1.83;;
48098;SDS011;33877;47.444;18.934;2022-09-09T03:13:32;2.15;;;1.50;;
48098;SDS011;33877;47.444;18.934;2022-09-09T03:16:01;3.72;;;1.40;;
48098;SDS011;33877;47.444;18.934;2022-09-09T03:18:34;3.75;;;1.27;;
48098;SDS011;33877;47.444;18.934;2022-09-09T03:21:02;3.22;;;1.40;;
48098;SDS011;33877;47.444;18.934;2022-09-09T03:23:32;3.25;;;1.87;;
48098;SDS011;33877;47.444;18.934;2022-09-09T03:26:01;5.07;;;1.52;;
48098;SDS011;33877;47.444;18.934;2022-09-09T03:28:30;2.70;;;1.35;;
48098;SDS011;33877;47.444;18.934;2022-09-09T03:31:00;5.78;;;2.28;;
48098;SDS011;33877;47.444;18.934;2022-09-09T03:33:34;3.95;;;1.60;;
48098;SDS011;33877;47.444;18.934;2022-09-09T03:36:05;2.45;;;1.20;;
48098;SDS011;33877;47.444;18.934;2022-09-09T03:38:35;3.08;;;1.40;;
48098;SDS011;33877;47.444;18.934;2022-09-09T03:41:04;2.10;;;1.37;;
48098;SDS011;33877;47.444;18.934;2022-09-09T03:43:37;3.75;;;1.48;;
48098;SDS011;33877;47.444;18.934;2022-09-09T03:46:05;3.30;;;1.50;;
48098;SDS011;33877;47.444;18.934;2022-09-09T03:48:34;3.72;;;1.90;;
48098;SDS011;33877;47.444;18.934;2022-09-09T03:51:05;3.70;;;1.85;;
48098;SDS011;33877;47.444;18.934;2022-09-09T03:53:34;3.35;;;1.87;;
48098;SDS011;33877;47.444;18.934;2022-09-09T03:56:04;3.72;;;2.17;;
48098;SDS011;33877;47.444;18.934;2022-09-09T03:58:35;4.05;;;2.03;;
48098;SDS011;33877;47.444;18.934;2022-09-09T04:01:07;4.20;;;2.35;;
48098;SDS011;33877;47.444;18.934;2022-09-09T04:03:39;5.00;;;2.47;;
48098;SDS011;33877;47.444;18.934;2022-09-09T04:06:07;4.87;;;2.42;;
48098;SDS011;33877;47.444;18.934;2022-09-09T04:08:37;5.80;;;2.92;;
48098;SDS011;33877;47.444;18.934;2022-09-09T04:11:06;6.85;;;3.10;;
48098;SDS011;33877;47.444;18.934;2022-09-09T04:13:36;4.75;;;3.17;;
48098;SDS011;33877;47.444;18.934;2022-09-09T04:16:10;5.32;;;3.15;;
48098;SDS011;33877;47.444;18.934;2022-09-09T04:18:40;5.97;;;3.65;;
48098;SDS011;33877;47.444;18.934;2022-09-09T04:21:10;7.15;;;3.22;;
48098;SDS011;33877;47.444;18.934;2022-09-09T04:23:40;5.35;;;3.12;;
48098;SDS011;33877;47.444;18.934;2022-09-09T04:26:09;5.78;;;3.12;;
48098;SDS011;33877;47.444;18.934;2022-09-09T04:28:38;7.65;;;2.90;;
48098;SDS011;33877;47.444;18.934;2022-09-09T04:31:09;6.67;;;3.27;;
48098;SDS011;33877;47.444;18.934;2022-09-09T04:33:44;5.40;;;2.78;;
48098;SDS011;33877;47.444;18.934;2022-09-09T04:36:13;5.10;;;2.95;;
48098;SDS011;33877;47.444;18.934;2022-09-09T04:38:41;5.70;;;3.28;;
48098;SDS011;33877;47.444;18.934;2022-09-09T04:41:10;5.22;;;3.05;;
48098;SDS011;33877;47.444;18.934;2022-09-09T04:43:40;5.03;;;2.90;;
48098;SDS011;33877;47.444;18.934;2022-09-09T04:46:09;7.25;;;3.37;;
48098;SDS011;33877;47.444;18.934;2022-09-09T04:48:39;4.93;;;3.08;;
48098;SDS011;33877;47.444;18.934;2022-09-09T04:51:09;6.93;;;3.55;;
48098;SDS011;33877;47.444;18.934;2022-09-09T04:53:45;5.30;;;3.40;;
48098;SDS011;33877;47.444;18.934;2022-09-09T04:56:17;5.12;;;3.35;;
48098;SDS011;33877;47.444;18.934;2022-09-09T04:58:49;9.27;;;3.62;;
48098;SDS011;33877;47.444;18.934;2022-09-09T05:01:18;5.68;;;3.50;;
48098;SDS011;33877;47.444;18.934;2022-09-09T05:03:50;9.10;;;3.25;;
48098;SDS011;33877;47.444;18.934;2022-09-09T05:06:21;5.53;;;3.12;;
48098;SDS011;33877;47.444;18.934;2022-09-09T05:08:50;7.00;;;3.30;;
48098;SDS011;33877;47.444;18.934;2022-09-09T05:11:26;4.85;;;3.15;;
48098;SDS011;33877;47.444;18.934;2022-09-09T05:13:57;5.12;;;3.20;;
48098;SDS011;33877;47.444;18.934;2022-09-09T05:16:28;7.23;;;3.23;;
48098;SDS011;33877;47.444;18.934;2022-09-09T05:18:58;7.32;;;3.08;;
48098;SDS011;33877;47.444;18.934;2022-09-09T05:21:28;7.75;;;3.60;;
48098;SDS011;33877;47.444;18.934;2022-09-09T05:24:03;5.75;;;3.33;;
48098;SDS011;33877;47.444;18.934;2022-09-09T05:26:31;5.12;;;3.12;;
48098;SDS011;33877;47.444;18.934;2022-09-09T05:29:01;6.78;;;3.40;;
48098;SDS011;33877;47.444;18.934;2022-09-09T05:31:30;6.55;;;3.12;;
48098;SDS011;33877;47.444;18.934;2022-09-09T05:34:00;5.70;;;3.10;;
48098;SDS011;33877;47.444;18.934;2022-09-09T05:36:29;6.72;;;3.00;;
48098;SDS011;33877;47.444;18.934;2022-09-09T05:38:57;5.00;;;3.00;;
48098;SDS011;33877;47.444;18.934;2022-09-09T05:41:30;7.05;;;2.72;;
48098;SDS011;33877;47.444;18.934;2022-09-09T05:44:00;6.43;;;3.30;;
48098;SDS011;33877;47.444;18.934;2022-09-09T05:46:28;5.40;;;3.15;;
48098;SDS011;33877;47.444;18.934;2022-09-09T05:48:57;5.37;;;2.42;;
48098;SDS011;33877;47.444;18.934;2022-09-09T05:51:27;4.65;;;2.50;;
48098;SDS011;33877;47.444;18.934;2022-09-09T05:53:59;5.00;;;2.72;;
48098;SDS011;33877;47.444;18.934;2022-09-09T05:56:30;3.83;;;2.35;;
48098;SDS011;33877;47.444;18.934;2022-09-09T05:58:58;6.00;;;2.50;;
48098;SDS011;33877;47.444;18.934;2022-09-09T06:01:28;4.95;;;2.87;;
48098;SDS011;33877;47.444;18.934;2022-09-09T06:04:01;5.97;;;2.78;;
48098;SDS011;33877;47.444;18.934;2022-09-09T06:06:31;6.28;;;2.50;;
48098;SDS011;33877;47.444;18.934;2022-09-09T06:09:10;5.45;;;2.92;;
48098;SDS011;33877;47.444;18.934;2022-09-09T06:11:46;4.12;;;2.35;;
48098;SDS011;33877;47.444;18.934;2022-09-09T06:14:16;4.60;;;2.67;;
48098;SDS011;33877;47.444;18.934;2022-09-09T06:16:45;4.95;;;2.62;;
48098;SDS011;33877;47.444;18.934;2022-09-09T06:19:15;4.90;;;2.62;;
48098;SDS011;33877;47.444;18.934;2022-09-09T06:21:44;7.20;;;2.37;;
48098;SDS011;33877;47.444;18.934;2022-09-09T06:24:12;4.05;;;2.37;;
48098;SDS011;33877;47.444;18.934;2022-09-09T06:26:41;4.40;;;2.28;;
48098;SDS011;33877;47.444;18.934;2022-09-09T06:29:10;5.30;;;2.50;;
48098;SDS011;33877;47.444;18.934;2022-09-09T06:31:38;5.37;;;2.42;;
48098;SDS011;33877;47.444;18.934;2022-09-09T06:34:08;3.92;;;2.40;;
48098;SDS011;33877;47.444;18.934;2022-09-09T06:36:38;3.75;;;2.33;;
48098;SDS011;33877;47.444;18.934;2022-09-09T06:39:07;7.22;;;2.50;;
48098;SDS011;33877;47.444;18.934;2022-09-09T06:41:42;4.53;;;2.50;;
48098;SDS011;33877;47.444;18.934;2022-09-09T06:44:13;4.10;;;2.30;;
48098;SDS011;33877;47.444;18.934;2022-09-09T06:46:45;3.53;;;1.98;;
48098;SDS011;33877;47.444;18.934;2022-09-09T06:49:16;4.00;;;2.10;;
48098;SDS011;33877;47.444;18.934;2022-09-09T06:51:45;6.30;;;3.05;;
48098;SDS011;33877;47.444;18.934;2022-09-09T06:54:14;5.20;;;2.15;;
48098;SDS011;33877;47.444;18.934;2022-09-09T06:56:42;5.62;;;2.30;;
48098;SDS011;33877;47.444;18.934;2022-09-09T06:59:12;5.50;;;2.10;;
48098;SDS011;33877;47.444;18.934;2022-09-09T07:01:41;6.87;;;2.00;;
48098;SDS011;33877;47.444;18.934;2022-09-09T07:04:12;4.68;;;1.80;;
48098;SDS011;33877;47.444;18.934;2022-09-09T07:06:45;3.30;;;1.70;;
48098;SDS011;33877;47.444;18.934;2022-09-09T07:09:15;5.55;;;1.90;;
48098;SDS011;33877;47.444;18.934;2022-09-09T07:11:44;3.65;;;1.90;;
48098;SDS011;33877;47.444;18.934;2022-09-09T07:14:15;3.70;;;1.70;;
48098;SDS011;33877;47.444;18.934;2022-09-09T07:16:44;4.62;;;1.77;;
48098;SDS011;33877;47.444;18.934;2022-09-09T07:19:14;2.97;;;1.60;;
48098;SDS011;33877;47.444;18.934;2022-09-09T07:21:46;4.85;;;2.20;;
48098;SDS011;33877;47.444;18.934;2022-09-09T07:24:14;4.07;;;2.03;;
48098;SDS011;33877;47.444;18.934;2022-09-09T07:26:43;4.40;;;1.80;;
48098;SDS011;33877;47.444;18.934;2022-09-09T07:29:11;3.97;;;1.83;;
48098;SDS011;33877;47.444;18.934;2022-09-09T07:31:47;4.62;;;1.77;;
48098;SDS011;33877;47.444;18.934;2022-09-09T07:34:17;3.42;;;1.62;;
48098;SDS011;33877;47.444;18.934;2022-09-09T07:36:47;4.70;;;1.90;;
48098;SDS011;33877;47.444;18.934;2022-09-09T07:39:17;4.93;;;1.60;;
48098;SDS011;33877;47.444;18.934;2022-09-09T07:41:48;5.45;;;1.90;;
48098;SDS011;33877;47.444;18.934;2022-09-09T07:44:18;3.25;;;1.70;;
48098;SDS011;33877;47.444;18.934;2022-09-09T07:46:49;4.07;;;1.40;;
48098;SDS011;33877;47.444;18.934;2022-09-09T07:49:18;3.47;;;1.60;;
48098;SDS011;33877;47.444;18.934;2022-09-09T07:51:56;2.58;;;1.10;;
48098;SDS011;33877;47.444;18.934;2022-09-09T07:54:26;2.40;;;1.10;;
48098;SDS011;33877;47.444;18.934;2022-09-09T07:56:54;3.53;;;1.30;;
48098;SDS011;33877;47.444;18.934;2022-09-09T07:59:22;3.17;;;1.02;;
48098;SDS011;33877;47.444;18.934;2022-09-09T08:01:52;3.83;;;1.23;;
48098;SDS011;33877;47.444;18.934;2022-09-09T08:04:24;2.62;;;1.37;;
48098;SDS011;33877;47.444;18.934;2022-09-09T08:06:58;2.12;;;1.23;;
48098;SDS011;33877;47.444;18.934;2022-09-09T08:09:28;5.10;;;1.62;;
48098;SDS011;33877;47.444;18.934;2022-09-09T08:11:57;5.10;;;1.42;;
48098;SDS011;33877;47.444;18.934;2022-09-09T08:14:26;2.72;;;1.15;;
48098;SDS011;33877;47.444;18.934;2022-09-09T08:16:56;3.80;;;1.10;;
48098;SDS011;33877;47.444;18.934;2022-09-09T08:19:25;2.40;;;1.30;;
48098;SDS011;33877;47.444;18.934;2022-09-09T08:21:57;3.60;;;1.85;;
48098;SDS011;33877;47.444;18.934;2022-09-09T08:24:27;1.80;;;0.88;;
48098;SDS011;33877;47.444;18.934;2022-09-09T08:26:55;1.70;;;1.20;;
48098;SDS011;33877;47.444;18.934;2022-09-09T08:29:28;2.95;;;1.10;;
48098;SDS011;33877;47.444;18.934;2022-09-09T08:31:58;2.57;;;1.10;;
48098;SDS011;33877;47.444;18.934;2022-09-09T08:34:27;6.03;;;1.33;;
48098;SDS011;33877;47.444;18.934;2022-09-09T08:36:59;5.80;;;1.45;;
48098;SDS011;33877;47.444;18.934;2022-09-09T08:39:28;5.45;;;1.67;;
48098;SDS011;33877;47.444;18.934;2022-09-09T08:57:58;2.33;;;1.15;;
48098;SDS011;33877;47.444;18.934;2022-09-09T09:00:47;2.95;;;1.23;;
48098;SDS011;33877;47.444;18.934;2022-09-09T09:09:10;2.95;;;1.08;;
48098;SDS011;33877;47.444;18.934;2022-09-09T09:11:51;1.85;;;1.00;;
48098;SDS011;33877;47.444;18.934;2022-09-09T09:14:31;2.92;;;1.02;;
48098;SDS011;33877;47.444;18.934;2022-09-09T09:17:03;1.83;;;0.80;;
48098;SDS011;33877;47.444;18.934;2022-09-09T09:19:39;2.50;;;1.05;;
48098;SDS011;33877;47.444;18.934;2022-09-09T09:22:20;4.90;;;1.23;;
48098;SDS011;33877;47.444;18.934;2022-09-09T09:25:43;1.73;;;0.73;;
48098;SDS011;33877;47.444;18.934;2022-09-09T09:28:18;1.87;;;0.88;;
48098;SDS011;33877;47.444;18.934;2022-09-09T09:31:20;2.05;;;0.90;;
48098;SDS011;33877;47.444;18.934;2022-09-09T09:33:51;3.00;;;0.93;;
48098;SDS011;33877;47.444;18.934;2022-09-09T09:36:24;3.42;;;1.10;;
48098;SDS011;33877;47.444;18.934;2022-09-09T09:39:04;2.53;;;0.80;;
48098;SDS011;33877;47.444;18.934;2022-09-09T09:41:53;2.20;;;0.90;;
48098;SDS011;33877;47.444;18.934;2022-09-09T09:44:30;3.05;;;1.23;;
48098;SDS011;33877;47.444;18.934;2022-09-09T09:47:13;3.65;;;0.90;;
48098;SDS011;33877;47.444;18.934;2022-09-09T09:49:53;0.70;;;0.60;;
48098;SDS011;33877;47.444;18.934;2022-09-09T09:52:40;2.62;;;0.60;;
48098;SDS011;33877;47.444;18.934;2022-09-09T09:55:12;2.80;;;1.00;;
48098;SDS011;33877;47.444;18.934;2022-09-09T09:57:44;0.85;;;0.40;;
48098;SDS011;33877;47.444;18.934;2022-09-09T10:00:23;4.07;;;0.98;;
48098;SDS011;33877;47.444;18.934;2022-09-09T10:03:00;3.20;;;0.60;;
48098;SDS011;33877;47.444;18.934;2022-09-09T10:05:35;2.05;;;0.70;;
48098;SDS011;33877;47.444;18.934;2022-09-09T10:10:47;2.55;;;0.90;;
48098;SDS011;33877;47.444;18.934;2022-09-09T10:13:39;1.83;;;0.68;;
48098;SDS011;33877;47.444;18.934;2022-09-09T10:22:02;2.92;;;1.00;;
48098;SDS011;33877;47.444;18.934;2022-09-09T10:33:35;2.80;;;0.62;;
48098;SDS011;33877;47.444;18.934;2022-09-09T10:36:26;2.53;;;0.70;;
48098;SDS011;33877;47.444;18.934;2022-09-09T10:46:52;2.78;;;0.80;;
48098;SDS011;33877;47.444;18.934;2022-09-09T10:55:42;2.35;;;0.52;;
48098;SDS011;33877;47.444;18.934;2022-09-09T10:58:14;1.77;;;0.62;;
48098;SDS011;33877;47.444;18.934;2022-09-09T11:00:47;1.70;;;0.50;;
48098;SDS011;33877;47.444;18.934;2022-09-09T11:03:28;3.45;;;0.73;;
48098;SDS011;33877;47.444;18.934;2022-09-09T11:06:09;3.65;;;0.70;;
48098;SDS011;33877;47.444;18.934;2022-09-09T11:08:43;3.08;;;0.60;;
48098;SDS011;33877;47.444;18.934;2022-09-09T11:11:24;0.93;;;0.57;;
48098;SDS011;33877;47.444;18.934;2022-09-09T11:14:05;1.02;;;0.37;;
48098;SDS011;33877;47.444;18.934;2022-09-09T11:22:04;1.80;;;0.50;;
48098;SDS011;33877;47.444;18.934;2022-09-09T11:24:38;2.03;;;0.52;;
48098;SDS011;33877;47.444;18.934;2022-09-09T11:27:11;0.90;;;0.80;;
48098;SDS011;33877;47.444;18.934;2022-09-09T11:29:47;4.15;;;1.00;;
48098;SDS011;33877;47.444;18.934;2022-09-09T11:38:31;2.65;;;0.98;;
48098;SDS011;33877;47.444;18.934;2022-09-09T11:41:07;0.47;;;0.47;;
48098;SDS011;33877;47.444;18.934;2022-09-09T11:43:40;4.15;;;0.70;;
48098;SDS011;33877;47.444;18.934;2022-09-09T11:46:10;6.87;;;1.35;;
48098;SDS011;33877;47.444;18.934;2022-09-09T11:48:44;2.53;;;0.70;;
48098;SDS011;33877;47.444;18.934;2022-09-09T11:53:51;2.00;;;0.80;;
48098;SDS011;33877;47.444;18.934;2022-09-09T11:56:29;2.70;;;0.90;;
48098;SDS011;33877;47.444;18.934;2022-09-09T11:59:00;3.35;;;0.82;;
48098;SDS011;33877;47.444;18.934;2022-09-09T12:01:35;1.20;;;0.62;;
48098;SDS011;33877;47.444;18.934;2022-09-09T12:04:06;4.00;;;0.73;;
48098;SDS011;33877;47.444;18.934;2022-09-09T12:06:55;1.80;;;0.80;;
48098;SDS011;33877;47.444;18.934;2022-09-09T12:09:31;2.58;;;0.85;;
48098;SDS011;33877;47.444;18.934;2022-09-09T12:12:04;2.53;;;1.10;;
48098;SDS011;33877;47.444;18.934;2022-09-09T12:15:00;1.90;;;0.80;;
48098;SDS011;33877;47.444;18.934;2022-09-09T12:17:30;2.47;;;1.10;;
48098;SDS011;33877;47.444;18.934;2022-09-09T12:20:02;1.70;;;0.60;;
48098;SDS011;33877;47.444;18.934;2022-09-09T12:28:13;1.80;;;0.60;;
48098;SDS011;33877;47.444;18.934;2022-09-09T12:33:22;0.55;;;0.43;;
48098;SDS011;33877;47.444;18.934;2022-09-09T12:35:54;7.87;;;1.87;;
48098;SDS011;33877;47.444;18.934;2022-09-09T12:38:39;1.35;;;0.50;;
48098;SDS011;33877;47.444;18.934;2022-09-09T12:41:20;1.23;;;0.70;;
48098;SDS011;33877;47.444;18.934;2022-09-09T12:43:50;1.70;;;0.43;;
48098;SDS011;33877;47.444;18.934;2022-09-09T12:54:54;1.20;;;0.50;;
48098;SDS011;33877;47.444;18.934;2022-09-09T12:57:23;2.53;;;0.70;;
48098;SDS011;33877;47.444;18.934;2022-09-09T13:00:03;1.83;;;0.87;;
48098;SDS011;33877;47.444;18.934;2022-09-09T13:02:35;1.17;;;0.62;;
48098;SDS011;33877;47.444;18.934;2022-09-09T13:05:24;1.45;;;0.60;;
48098;SDS011;33877;47.444;18.934;2022-09-09T13:08:00;1.23;;;0.50;;
48098;SDS011;33877;47.444;18.934;2022-09-09T13:10:31;1.10;;;0.55;;
48098;SDS011;33877;47.444;18.934;2022-09-09T13:13:16;2.30;;;0.65;;
48098;SDS011;33877;47.444;18.934;2022-09-09T13:15:50;4.57;;;0.70;;
48098;SDS011;33877;47.444;18.934;2022-09-09T13:18:21;2.10;;;0.70;;
48098;SDS011;33877;47.444;18.934;2022-09-09T13:20:50;1.27;;;0.55;;
48098;SDS011;33877;47.444;18.934;2022-09-09T13:23:19;1.62;;;0.50;;
48098;SDS011;33877;47.444;18.934;2022-09-09T13:25:58;1.30;;;0.50;;
48098;SDS011;33877;47.444;18.934;2022-09-09T13:28:28;3.05;;;0.60;;
48098;SDS011;33877;47.444;18.934;2022-09-09T13:31:01;4.47;;;1.55;;
48098;SDS011;33877;47.444;18.934;2022-09-09T13:33:35;3.28;;;0.80;;
48098;SDS011;33877;47.444;18.934;2022-09-09T13:38:53;1.50;;;0.50;;
48098;SDS011;33877;47.444;18.934;2022-09-09T13:41:24;3.55;;;0.90;;
48098;SDS011;33877;47.444;18.934;2022-09-09T13:43:53;1.77;;;0.55;;
48098;SDS011;33877;47.444;18.934;2022-09-09T13:48:58;2.42;;;0.50;;
48098;SDS011;33877;47.444;18.934;2022-09-09T13:51:37;2.95;;;0.77;;
48098;SDS011;33877;47.444;18.934;2022-09-09T13:54:08;2.15;;;0.70;;
48098;SDS011;33877;47.444;18.934;2022-09-09T13:56:38;2.05;;;0.55;;
48098;SDS011;33877;47.444;18.934;2022-09-09T13:59:40;0.88;;;0.57;;
48098;SDS011;33877;47.444;18.934;2022-09-09T14:02:21;1.83;;;0.60;;
48098;SDS011;33877;47.444;18.934;2022-09-09T14:04:51;3.80;;;0.80;;
48098;SDS011;33877;47.444;18.934;2022-09-09T14:07:22;2.15;;;0.65;;
48098;SDS011;33877;47.444;18.934;2022-09-09T14:09:58;2.53;;;0.57;;
48098;SDS011;33877;47.444;18.934;2022-09-09T14:12:31;2.03;;;0.75;;
48098;SDS011;33877;47.444;18.934;2022-09-09T14:15:04;4.37;;;0.90;;
48098;SDS011;33877;47.444;18.934;2022-09-09T14:17:38;2.17;;;0.60;;
48098;SDS011;33877;47.444;18.934;2022-09-09T14:20:16;1.73;;;0.73;;
48098;SDS011;33877;47.444;18.934;2022-09-09T14:22:48;1.52;;;1.10;;
48098;SDS011;33877;47.444;18.934;2022-09-09T14:25:25;2.58;;;0.65;;
48098;SDS011;33877;47.444;18.934;2022-09-09T14:27:56;4.65;;;0.75;;
48098;SDS011;33877;47.444;18.934;2022-09-09T14:30:28;2.35;;;0.70;;
48098;SDS011;33877;47.444;18.934;2022-09-09T14:33:01;2.15;;;0.52;;
48098;SDS011;33877;47.444;18.934;2022-09-09T14:35:35;1.45;;;0.60;;
48098;SDS011;33877;47.444;18.934;2022-09-09T14:38:12;2.10;;;0.40;;
48098;SDS011;33877;47.444;18.934;2022-09-09T14:40:46;2.85;;;0.70;;
48098;SDS011;33877;47.444;18.934;2022-09-09T14:43:16;3.33;;;0.88;;
48098;SDS011;33877;47.444;18.934;2022-09-09T14:45:51;2.92;;;0.68;;
48098;SDS011;33877;47.444;18.934;2022-09-09T14:48:19;5.78;;;0.90;;
48098;SDS011;33877;47.444;18.934;2022-09-09T14:50:47;0.70;;;0.50;;
48098;SDS011;33877;47.444;18.934;2022-09-09T14:53:18;1.15;;;0.57;;
48098;SDS011;33877;47.444;18.934;2022-09-09T14:55:46;7.90;;;2.92;;
48098;SDS011;33877;47.444;18.934;2022-09-09T14:58:19;4.45;;;1.10;;
48098;SDS011;33877;47.444;18.934;2022-09-09T15:00:48;2.70;;;0.80;;
48098;SDS011;33877;47.444;18.934;2022-09-09T15:03:16;1.40;;;0.70;;
48098;SDS011;33877;47.444;18.934;2022-09-09T15:05:48;2.53;;;0.60;;
48098;SDS011;33877;47.444;18.934;2022-09-09T15:08:21;1.27;;;0.52;;
48098;SDS011;33877;47.444;18.934;2022-09-09T15:10:57;2.37;;;0.60;;
48098;SDS011;33877;47.444;18.934;2022-09-09T15:13:36;1.42;;;0.57;;
48098;SDS011;33877;47.444;18.934;2022-09-09T15:16:10;1.37;;;0.70;;
48098;SDS011;33877;47.444;18.934;2022-09-09T15:21:17;3.22;;;0.73;;
48098;SDS011;33877;47.444;18.934;2022-09-09T15:23:52;4.90;;;0.70;;
48098;SDS011;33877;47.444;18.934;2022-09-09T15:26:20;1.02;;;0.40;;
48098;SDS011;33877;47.444;18.934;2022-09-09T15:28:52;1.48;;;0.70;;
48098;SDS011;33877;47.444;18.934;2022-09-09T15:31:23;0.55;;;0.30;;
48098;SDS011;33877;47.444;18.934;2022-09-09T15:34:05;1.33;;;0.70;;
48098;SDS011;33877;47.444;18.934;2022-09-09T15:36:38;0.85;;;0.50;;
48098;SDS011;33877;47.444;18.934;2022-09-09T15:39:12;1.20;;;0.60;;
48098;SDS011;33877;47.444;18.934;2022-09-09T15:41:46;2.50;;;0.50;;
48098;SDS011;33877;47.444;18.934;2022-09-09T15:44:15;2.83;;;0.60;;
48098;SDS011;33877;47.444;18.934;2022-09-09T15:46:51;1.67;;;0.40;;
48098;SDS011;33877;47.444;18.934;2022-09-09T15:49:24;2.62;;;0.50;;
48098;SDS011;33877;47.444;18.934;2022-09-09T15:52:00;5.20;;;1.17;;
48098;SDS011;33877;47.444;18.934;2022-09-09T15:54:32;2.08;;;0.62;;
48098;SDS011;33877;47.444;18.934;2022-09-09T15:57:04;2.12;;;0.73;;
48098;SDS011;33877;47.444;18.934;2022-09-09T15:59:35;3.40;;;0.70;;
48098;SDS011;33877;47.444;18.934;2022-09-09T16:02:06;1.75;;;0.65;;
48098;SDS011;33877;47.444;18.934;2022-09-09T16:04:35;1.83;;;0.60;;
48098;SDS011;33877;47.444;18.934;2022-09-09T16:07:04;2.20;;;0.65;;
48098;SDS011;33877;47.444;18.934;2022-09-09T16:09:33;1.62;;;0.70;;
48098;SDS011;33877;47.444;18.934;2022-09-09T16:12:03;5.28;;;1.45;;
48098;SDS011;33877;47.444;18.934;2022-09-09T16:14:37;3.20;;;0.90;;
48098;SDS011;33877;47.444;18.934;2022-09-09T16:17:08;1.08;;;0.80;;
48098;SDS011;33877;47.444;18.934;2022-09-09T16:19:36;2.58;;;0.60;;
48098;SDS011;33877;47.444;18.934;2022-09-09T16:22:04;2.70;;;0.70;;
48098;SDS011;33877;47.444;18.934;2022-09-09T16:24:34;4.82;;;1.15;;
48098;SDS011;33877;47.444;18.934;2022-09-09T16:27:03;2.95;;;0.73;;
48098;SDS011;33877;47.444;18.934;2022-09-09T16:29:32;1.73;;;0.73;;
48098;SDS011;33877;47.444;18.934;2022-09-09T16:32:02;1.90;;;0.73;;
48098;SDS011;33877;47.444;18.934;2022-09-09T16:34:30;1.80;;;0.77;;
48098;SDS011;33877;47.444;18.934;2022-09-09T16:37:03;1.30;;;0.65;;
48098;SDS011;33877;47.444;18.934;2022-09-09T16:39:34;3.53;;;0.62;;
48098;SDS011;33877;47.444;18.934;2022-09-09T16:42:03;1.77;;;0.62;;
48098;SDS011;33877;47.444;18.934;2022-09-09T16:44:33;2.60;;;0.68;;
48098;SDS011;33877;47.444;18.934;2022-09-09T16:47:01;4.00;;;0.70;;
48098;SDS011;33877;47.444;18.934;2022-09-09T16:49:29;2.92;;;0.60;;
48098;SDS011;33877;47.444;18.934;2022-09-09T16:51:59;1.90;;;0.90;;
48098;SDS011;33877;47.444;18.934;2022-09-09T16:54:27;5.12;;;1.00;;
48098;SDS011;33877;47.444;18.934;2022-09-09T16:56:59;2.55;;;0.93;;
48098;SDS011;33877;47.444;18.934;2022-09-09T16:59:30;4.85;;;1.08;;
48098;SDS011;33877;47.444;18.934;2022-09-09T17:02:01;3.78;;;0.95;;
48098;SDS011;33877;47.444;18.934;2022-09-09T17:04:32;5.15;;;1.00;;
48098;SDS011;33877;47.444;18.934;2022-09-09T17:07:02;2.25;;;0.90;;
48098;SDS011;33877;47.444;18.934;2022-09-09T17:09:30;4.30;;;1.00;;
48098;SDS011;33877;47.444;18.934;2022-09-09T17:12:00;2.30;;;1.00;;
48098;SDS011;33877;47.444;18.934;2022-09-09T17:14:28;4.65;;;1.10;;
48098;SDS011;33877;47.444;18.934;2022-09-09T17:16:58;6.12;;;1.10;;
48098;SDS011;33877;47.444;18.934;2022-09-09T17:19:48;4.72;;;0.85;;
48098;SDS011;33877;47.444;18.934;2022-09-09T17:22:17;6.80;;;1.20;;